Corpus Christi NAS, Texas
Current Conditions -  °F | °C
As of 3:56 AM on Saturday 22 Nov 2014 (Local Time) from KNGP Reporting Station
Light Rain Light Rain  
Wind Chill: 69°   Ceiling: 9500
Heat Index: 69°   Visibility: 9mi
Dew Point: 68°   Wind: 17mph
Humidity: 96%   Direction: 130°SE
Pressure: 29.96"   Gusts: NA
Location:  27.7°N, 97.28°W
Report Text: KNGP 220956Z AUTO 13015KT 9SM -RA SCT027 BKN095 21/20 A2996 RMK AO2 RAB44 CIG 022 SLP146 P0001 T02060200 $
Loading
Personal Weather Stations






























Interactive Weather Map New forecast layout! Learn more

10-Day Weather Forecast

Advertisements
Track Severe Weather on mobile